sensor_id;sensor_type;location;lat;lon;timestamp;temperature;humidity
78345;DHT22;67620;51.134;6.548;2023-05-16T00:01:13;14.20;71.60
78345;DHT22;67620;51.134;6.548;2023-05-16T00:03:41;14.20;71.60
78345;DHT22;67620;51.134;6.548;2023-05-16T00:06:07;14.10;71.30
78345;DHT22;67620;51.134;6.548;2023-05-16T00:08:34;14.00;72.00
78345;DHT22;67620;51.134;6.548;2023-05-16T00:10:59;14.00;72.00
78345;DHT22;67620;51.134;6.548;2023-05-16T00:13:26;14.10;72.30
78345;DHT22;67620;51.134;6.548;2023-05-16T00:15:52;14.10;71.50
78345;DHT22;67620;51.134;6.548;2023-05-16T00:18:19;14.00;70.90
78345;DHT22;67620;51.134;6.548;2023-05-16T00:20:49;14.00;71.30
78345;DHT22;67620;51.134;6.548;2023-05-16T00:23:16;13.90;70.60
78345;DHT22;67620;51.134;6.548;2023-05-16T00:25:42;13.90;70.10
78345;DHT22;67620;51.134;6.548;2023-05-16T00:28:07;13.90;70.10
78345;DHT22;67620;51.134;6.548;2023-05-16T00:30:33;13.90;69.80
78345;DHT22;67620;51.134;6.548;2023-05-16T00:32:59;13.80;70.30
78345;DHT22;67620;51.134;6.548;2023-05-16T00:35:25;13.80;70.40
78345;DHT22;67620;51.134;6.548;2023-05-16T00:37:50;13.60;70.80
78345;DHT22;67620;51.134;6.548;2023-05-16T00:40:16;13.50;70.20
78345;DHT22;67620;51.134;6.548;2023-05-16T00:42:42;13.50;70.40
78345;DHT22;67620;51.134;6.548;2023-05-16T00:45:08;13.70;70.50
78345;DHT22;67620;51.134;6.548;2023-05-16T00:47:35;13.60;70.30
78345;DHT22;67620;51.134;6.548;2023-05-16T00:50:00;13.60;69.80
78345;DHT22;67620;51.134;6.548;2023-05-16T00:52:27;13.60;69.90
78345;DHT22;67620;51.134;6.548;2023-05-16T00:54:52;13.60;69.70
78345;DHT22;67620;51.134;6.548;2023-05-16T00:57:18;13.60;69.90
78345;DHT22;67620;51.134;6.548;2023-05-16T00:59:45;13.60;70.30
78345;DHT22;67620;51.134;6.548;2023-05-16T01:02:12;13.50;71.70
78345;DHT22;67620;51.134;6.548;2023-05-16T01:04:37;13.40;71.30
78345;DHT22;67620;51.134;6.548;2023-05-16T01:07:03;13.50;71.80
78345;DHT22;67620;51.134;6.548;2023-05-16T01:09:29;13.50;70.90
78345;DHT22;67620;51.134;6.548;2023-05-16T01:15:01;13.40;71.40
78345;DHT22;67620;51.134;6.548;2023-05-16T01:17:44;13.30;71.40
78345;DHT22;67620;51.134;6.548;2023-05-16T01:23:24;13.40;70.70
78345;DHT22;67620;51.134;6.548;2023-05-16T01:26:26;13.30;71.70
78345;DHT22;67620;51.134;6.548;2023-05-16T01:28:53;13.30;71.70
78345;DHT22;67620;51.134;6.548;2023-05-16T01:31:20;13.20;71.40
78345;DHT22;67620;51.134;6.548;2023-05-16T01:33:46;13.20;70.80
78345;DHT22;67620;51.134;6.548;2023-05-16T01:36:25;13.20;70.30
78345;DHT22;67620;51.134;6.548;2023-05-16T01:39:32;13.20;70.40
78345;DHT22;67620;51.134;6.548;2023-05-16T01:42:08;13.00;70.80
78345;DHT22;67620;51.134;6.548;2023-05-16T01:44:55;13.00;70.60
78345;DHT22;67620;51.134;6.548;2023-05-16T01:47:24;13.00;70.70
78345;DHT22;67620;51.134;6.548;2023-05-16T01:50:09;13.00;70.20
78345;DHT22;67620;51.134;6.548;2023-05-16T01:52:44;12.90;70.70
78345;DHT22;67620;51.134;6.548;2023-05-16T01:55:15;13.00;70.10
78345;DHT22;67620;51.134;6.548;2023-05-16T01:57:41;13.10;70.50
78345;DHT22;67620;51.134;6.548;2023-05-16T02:00:08;13.00;70.20
78345;DHT22;67620;51.134;6.548;2023-05-16T02:02:33;13.00;70.10
78345;DHT22;67620;51.134;6.548;2023-05-16T02:04:59;13.00;70.00
78345;DHT22;67620;51.134;6.548;2023-05-16T02:07:24;12.90;69.70
78345;DHT22;67620;51.134;6.548;2023-05-16T02:09:50;13.00;69.00
78345;DHT22;67620;51.134;6.548;2023-05-16T02:12:15;12.90;70.50
78345;DHT22;67620;51.134;6.548;2023-05-16T02:14:41;12.90;70.30
78345;DHT22;67620;51.134;6.548;2023-05-16T02:17:07;12.90;69.70
78345;DHT22;67620;51.134;6.548;2023-05-16T02:19:32;12.70;69.50
78345;DHT22;67620;51.134;6.548;2023-05-16T02:21:58;12.80;70.00
78345;DHT22;67620;51.134;6.548;2023-05-16T02:24:23;12.90;69.50
78345;DHT22;67620;51.134;6.548;2023-05-16T02:26:49;12.90;69.60
78345;DHT22;67620;51.134;6.548;2023-05-16T02:29:15;12.90;70.20
78345;DHT22;67620;51.134;6.548;2023-05-16T02:31:41;12.80;69.80
78345;DHT22;67620;51.134;6.548;2023-05-16T02:34:07;12.80;69.60
78345;DHT22;67620;51.134;6.548;2023-05-16T02:36:32;12.70;69.70
78345;DHT22;67620;51.134;6.548;2023-05-16T02:39:00;12.70;69.60
78345;DHT22;67620;51.134;6.548;2023-05-16T02:41:26;12.60;70.10
78345;DHT22;67620;51.134;6.548;2023-05-16T02:43:52;12.60;70.00
78345;DHT22;67620;51.134;6.548;2023-05-16T02:46:33;12.70;70.60
78345;DHT22;67620;51.134;6.548;2023-05-16T02:48:58;12.70;70.90
78345;DHT22;67620;51.134;6.548;2023-05-16T02:51:26;12.60;71.20
78345;DHT22;67620;51.134;6.548;2023-05-16T02:53:52;12.60;70.20
78345;DHT22;67620;51.134;6.548;2023-05-16T02:56:18;12.70;70.10
78345;DHT22;67620;51.134;6.548;2023-05-16T02:58:46;12.70;69.50
78345;DHT22;67620;51.134;6.548;2023-05-16T03:01:12;12.70;69.00
78345;DHT22;67620;51.134;6.548;2023-05-16T03:03:38;12.60;69.60
78345;DHT22;67620;51.134;6.548;2023-05-16T03:06:03;12.50;70.50
78345;DHT22;67620;51.134;6.548;2023-05-16T03:08:29;12.50;70.80
78345;DHT22;67620;51.134;6.548;2023-05-16T03:10:55;12.40;69.80
78345;DHT22;67620;51.134;6.548;2023-05-16T03:13:20;12.50;69.30
78345;DHT22;67620;51.134;6.548;2023-05-16T03:15:47;12.40;70.10
78345;DHT22;67620;51.134;6.548;2023-05-16T03:18:12;12.40;69.50
78345;DHT22;67620;51.134;6.548;2023-05-16T03:20:38;12.40;68.20
78345;DHT22;67620;51.134;6.548;2023-05-16T03:23:03;12.30;68.90
78345;DHT22;67620;51.134;6.548;2023-05-16T03:25:35;12.40;69.00
78345;DHT22;67620;51.134;6.548;2023-05-16T03:28:05;12.40;67.70
78345;DHT22;67620;51.134;6.548;2023-05-16T03:30:31;12.30;67.80
78345;DHT22;67620;51.134;6.548;2023-05-16T03:32:56;12.30;67.50
78345;DHT22;67620;51.134;6.548;2023-05-16T03:35:22;12.20;68.10
78345;DHT22;67620;51.134;6.548;2023-05-16T03:37:49;12.10;66.80
78345;DHT22;67620;51.134;6.548;2023-05-16T03:40:14;12.10;67.90
78345;DHT22;67620;51.134;6.548;2023-05-16T03:42:40;12.10;67.90
78345;DHT22;67620;51.134;6.548;2023-05-16T03:45:06;12.00;67.70
78345;DHT22;67620;51.134;6.548;2023-05-16T03:47:31;12.00;67.30
78345;DHT22;67620;51.134;6.548;2023-05-16T03:50:04;11.80;67.20
78345;DHT22;67620;51.134;6.548;2023-05-16T03:52:30;11.90;67.80
78345;DHT22;67620;51.134;6.548;2023-05-16T03:54:56;12.00;67.40
78345;DHT22;67620;51.134;6.548;2023-05-16T03:57:22;11.90;67.70
78345;DHT22;67620;51.134;6.548;2023-05-16T03:59:48;11.70;68.40
78345;DHT22;67620;51.134;6.548;2023-05-16T04:02:13;11.80;67.80
78345;DHT22;67620;51.134;6.548;2023-05-16T04:04:39;11.80;66.70
78345;DHT22;67620;51.134;6.548;2023-05-16T04:07:04;11.70;67.70
78345;DHT22;67620;51.134;6.548;2023-05-16T04:09:30;11.80;67.60
78345;DHT22;67620;51.134;6.548;2023-05-16T04:11:56;11.80;67.30
78345;DHT22;67620;51.134;6.548;2023-05-16T04:14:23;11.80;67.30
78345;DHT22;67620;51.134;6.548;2023-05-16T04:16:48;11.80;67.20
78345;DHT22;67620;51.134;6.548;2023-05-16T04:19:14;11.80;67.20
78345;DHT22;67620;51.134;6.548;2023-05-16T04:21:40;11.60;66.40
78345;DHT22;67620;51.134;6.548;2023-05-16T04:24:06;11.60;66.90
78345;DHT22;67620;51.134;6.548;2023-05-16T04:26:32;11.60;66.70
78345;DHT22;67620;51.134;6.548;2023-05-16T04:28:57;11.60;67.30
78345;DHT22;67620;51.134;6.548;2023-05-16T04:31:24;11.60;67.30
78345;DHT22;67620;51.134;6.548;2023-05-16T04:33:50;11.60;67.70
78345;DHT22;67620;51.134;6.548;2023-05-16T04:36:16;11.50;66.80
78345;DHT22;67620;51.134;6.548;2023-05-16T04:38:42;11.60;67.30
78345;DHT22;67620;51.134;6.548;2023-05-16T04:41:08;11.50;67.20
78345;DHT22;67620;51.134;6.548;2023-05-16T04:43:33;11.60;67.50
78345;DHT22;67620;51.134;6.548;2023-05-16T04:45:59;11.50;67.70
78345;DHT22;67620;51.134;6.548;2023-05-16T04:48:25;11.50;67.50
78345;DHT22;67620;51.134;6.548;2023-05-16T04:50:51;11.40;68.30
78345;DHT22;67620;51.134;6.548;2023-05-16T04:53:16;11.40;67.90
78345;DHT22;67620;51.134;6.548;2023-05-16T04:55:42;11.50;68.00
78345;DHT22;67620;51.134;6.548;2023-05-16T04:58:07;11.50;68.00
78345;DHT22;67620;51.134;6.548;2023-05-16T05:00:33;11.50;67.90
78345;DHT22;67620;51.134;6.548;2023-05-16T05:02:58;11.50;68.20
78345;DHT22;67620;51.134;6.548;2023-05-16T05:05:24;11.50;67.60
78345;DHT22;67620;51.134;6.548;2023-05-16T05:07:50;11.40;68.10
78345;DHT22;67620;51.134;6.548;2023-05-16T05:10:15;11.50;68.20
78345;DHT22;67620;51.134;6.548;2023-05-16T05:12:41;11.50;68.20
78345;DHT22;67620;51.134;6.548;2023-05-16T05:15:07;11.50;68.20
78345;DHT22;67620;51.134;6.548;2023-05-16T05:17:33;11.50;68.40
78345;DHT22;67620;51.134;6.548;2023-05-16T05:19:58;11.50;68.50
78345;DHT22;67620;51.134;6.548;2023-05-16T05:22:24;11.60;68.10
78345;DHT22;67620;51.134;6.548;2023-05-16T05:24:49;11.50;68.60
78345;DHT22;67620;51.134;6.548;2023-05-16T05:27:15;11.50;69.00
78345;DHT22;67620;51.134;6.548;2023-05-16T05:29:40;11.50;68.80
78345;DHT22;67620;51.134;6.548;2023-05-16T05:32:06;11.60;68.90
78345;DHT22;67620;51.134;6.548;2023-05-16T05:34:32;11.60;68.90
78345;DHT22;67620;51.134;6.548;2023-05-16T05:36:58;11.60;68.70
78345;DHT22;67620;51.134;6.548;2023-05-16T05:39:23;11.50;69.60
78345;DHT22;67620;51.134;6.548;2023-05-16T05:41:50;11.60;69.20
78345;DHT22;67620;51.134;6.548;2023-05-16T05:44:15;11.60;69.30
78345;DHT22;67620;51.134;6.548;2023-05-16T05:46:41;11.50;69.40
78345;DHT22;67620;51.134;6.548;2023-05-16T05:49:07;11.50;69.50
78345;DHT22;67620;51.134;6.548;2023-05-16T05:51:32;11.60;68.90
78345;DHT22;67620;51.134;6.548;2023-05-16T05:53:58;11.60;68.50
78345;DHT22;67620;51.134;6.548;2023-05-16T05:56:24;11.70;68.40
78345;DHT22;67620;51.134;6.548;2023-05-16T05:58:50;11.60;68.80
78345;DHT22;67620;51.134;6.548;2023-05-16T06:01:16;11.70;68.30
78345;DHT22;67620;51.134;6.548;2023-05-16T06:03:42;11.60;68.30
78345;DHT22;67620;51.134;6.548;2023-05-16T06:06:08;11.60;68.50
78345;DHT22;67620;51.134;6.548;2023-05-16T06:08:33;11.70;68.40
78345;DHT22;67620;51.134;6.548;2023-05-16T06:10:59;11.70;68.20
78345;DHT22;67620;51.134;6.548;2023-05-16T06:13:25;11.60;67.80
78345;DHT22;67620;51.134;6.548;2023-05-16T06:15:52;11.70;67.10
78345;DHT22;67620;51.134;6.548;2023-05-16T06:18:17;11.60;67.40
78345;DHT22;67620;51.134;6.548;2023-05-16T06:20:43;11.70;67.90
78345;DHT22;67620;51.134;6.548;2023-05-16T06:23:09;11.80;68.20
78345;DHT22;67620;51.134;6.548;2023-05-16T06:25:34;11.80;67.00
78345;DHT22;67620;51.134;6.548;2023-05-16T06:28:00;11.80;67.40
78345;DHT22;67620;51.134;6.548;2023-05-16T06:30:25;11.80;66.50
78345;DHT22;67620;51.134;6.548;2023-05-16T06:32:51;11.80;67.40
78345;DHT22;67620;51.134;6.548;2023-05-16T06:35:16;11.90;66.90
78345;DHT22;67620;51.134;6.548;2023-05-16T06:37:42;11.90;66.60
78345;DHT22;67620;51.134;6.548;2023-05-16T06:40:08;11.90;66.00
78345;DHT22;67620;51.134;6.548;2023-05-16T06:42:33;12.00;66.80
78345;DHT22;67620;51.134;6.548;2023-05-16T06:44:59;12.00;66.50
78345;DHT22;67620;51.134;6.548;2023-05-16T06:47:24;11.90;65.70
78345;DHT22;67620;51.134;6.548;2023-05-16T06:49:50;11.90;65.40
78345;DHT22;67620;51.134;6.548;2023-05-16T06:52:16;11.90;66.00
78345;DHT22;67620;51.134;6.548;2023-05-16T06:54:41;11.90;65.70
78345;DHT22;67620;51.134;6.548;2023-05-16T06:57:07;12.00;66.60
78345;DHT22;67620;51.134;6.548;2023-05-16T06:59:33;12.00;64.90
78345;DHT22;67620;51.134;6.548;2023-05-16T07:02:00;12.00;65.00
78345;DHT22;67620;51.134;6.548;2023-05-16T07:04:26;12.00;65.90
78345;DHT22;67620;51.134;6.548;2023-05-16T07:06:52;12.00;65.10
78345;DHT22;67620;51.134;6.548;2023-05-16T07:09:18;12.10;65.60
78345;DHT22;67620;51.134;6.548;2023-05-16T07:11:43;12.20;65.80
78345;DHT22;67620;51.134;6.548;2023-05-16T07:14:09;12.20;64.50
78345;DHT22;67620;51.134;6.548;2023-05-16T07:16:34;12.20;65.00
78345;DHT22;67620;51.134;6.548;2023-05-16T07:19:00;12.20;62.90
78345;DHT22;67620;51.134;6.548;2023-05-16T07:21:26;12.20;64.00
78345;DHT22;67620;51.134;6.548;2023-05-16T07:23:52;12.20;62.60
78345;DHT22;67620;51.134;6.548;2023-05-16T07:26:17;12.20;62.10
78345;DHT22;67620;51.134;6.548;2023-05-16T07:28:43;12.20;63.20
78345;DHT22;67620;51.134;6.548;2023-05-16T07:31:08;12.30;63.40
78345;DHT22;67620;51.134;6.548;2023-05-16T07:33:34;12.30;62.70
78345;DHT22;67620;51.134;6.548;2023-05-16T07:36:00;12.40;62.90
78345;DHT22;67620;51.134;6.548;2023-05-16T07:38:25;12.40;63.40
78345;DHT22;67620;51.134;6.548;2023-05-16T07:40:51;12.60;62.70
78345;DHT22;67620;51.134;6.548;2023-05-16T07:43:17;12.60;61.90
78345;DHT22;67620;51.134;6.548;2023-05-16T07:45:42;12.60;60.10
78345;DHT22;67620;51.134;6.548;2023-05-16T07:48:08;12.60;59.70
78345;DHT22;67620;51.134;6.548;2023-05-16T07:50:34;12.60;58.90
78345;DHT22;67620;51.134;6.548;2023-05-16T07:52:59;12.60;59.40
78345;DHT22;67620;51.134;6.548;2023-05-16T07:55:25;12.60;60.00
78345;DHT22;67620;51.134;6.548;2023-05-16T07:57:51;12.60;60.20
78345;DHT22;67620;51.134;6.548;2023-05-16T08:00:17;12.70;59.80
78345;DHT22;67620;51.134;6.548;2023-05-16T08:02:43;12.70;60.00
78345;DHT22;67620;51.134;6.548;2023-05-16T08:05:08;12.80;59.10
78345;DHT22;67620;51.134;6.548;2023-05-16T08:07:34;12.90;59.20
78345;DHT22;67620;51.134;6.548;2023-05-16T08:10:00;12.90;58.60
78345;DHT22;67620;51.134;6.548;2023-05-16T08:12:25;12.90;58.40
78345;DHT22;67620;51.134;6.548;2023-05-16T08:14:55;12.90;58.90
78345;DHT22;67620;51.134;6.548;2023-05-16T08:17:21;12.90;57.70
78345;DHT22;67620;51.134;6.548;2023-05-16T08:19:46;13.00;57.50
78345;DHT22;67620;51.134;6.548;2023-05-16T08:22:12;13.10;58.70
78345;DHT22;67620;51.134;6.548;2023-05-16T08:24:38;13.20;58.40
78345;DHT22;67620;51.134;6.548;2023-05-16T08:27:04;13.20;57.90
78345;DHT22;67620;51.134;6.548;2023-05-16T08:29:29;13.30;56.40
78345;DHT22;67620;51.134;6.548;2023-05-16T08:31:56;13.30;57.10
78345;DHT22;67620;51.134;6.548;2023-05-16T08:34:21;13.40;56.00
78345;DHT22;67620;51.134;6.548;2023-05-16T08:36:47;13.40;56.30
78345;DHT22;67620;51.134;6.548;2023-05-16T08:39:13;13.50;57.20
78345;DHT22;67620;51.134;6.548;2023-05-16T08:41:39;13.50;57.30
78345;DHT22;67620;51.134;6.548;2023-05-16T08:44:05;13.70;56.70
78345;DHT22;67620;51.134;6.548;2023-05-16T08:46:32;13.80;58.20
78345;DHT22;67620;51.134;6.548;2023-05-16T08:48:59;13.80;58.50
78345;DHT22;67620;51.134;6.548;2023-05-16T08:51:26;13.70;58.50
78345;DHT22;67620;51.134;6.548;2023-05-16T08:54:13;13.70;58.90
78345;DHT22;67620;51.134;6.548;2023-05-16T08:56:41;13.70;58.30
78345;DHT22;67620;51.134;6.548;2023-05-16T08:59:07;13.70;58.80
78345;DHT22;67620;51.134;6.548;2023-05-16T09:01:32;13.60;58.80
78345;DHT22;67620;51.134;6.548;2023-05-16T09:03:59;13.70;59.40
78345;DHT22;67620;51.134;6.548;2023-05-16T09:06:26;13.70;57.40
78345;DHT22;67620;51.134;6.548;2023-05-16T09:08:55;13.70;56.50
78345;DHT22;67620;51.134;6.548;2023-05-16T09:11:20;13.70;57.00
78345;DHT22;67620;51.134;6.548;2023-05-16T09:13:46;13.60;58.00
78345;DHT22;67620;51.134;6.548;2023-05-16T09:16:18;13.70;56.90
78345;DHT22;67620;51.134;6.548;2023-05-16T09:18:54;13.80;56.80
78345;DHT22;67620;51.134;6.548;2023-05-16T09:21:28;14.00;57.70
78345;DHT22;67620;51.134;6.548;2023-05-16T09:23:54;14.10;56.30
78345;DHT22;67620;51.134;6.548;2023-05-16T09:26:19;14.20;55.40
78345;DHT22;67620;51.134;6.548;2023-05-16T09:28:46;14.20;55.70
78345;DHT22;67620;51.134;6.548;2023-05-16T09:31:18;14.20;54.70
78345;DHT22;67620;51.134;6.548;2023-05-16T09:33:44;14.20;56.10
78345;DHT22;67620;51.134;6.548;2023-05-16T09:36:10;14.20;55.10
78345;DHT22;67620;51.134;6.548;2023-05-16T09:38:36;14.20;55.30
78345;DHT22;67620;51.134;6.548;2023-05-16T09:41:02;14.30;54.50
78345;DHT22;67620;51.134;6.548;2023-05-16T09:43:28;14.40;55.70
78345;DHT22;67620;51.134;6.548;2023-05-16T09:45:53;14.40;54.30
78345;DHT22;67620;51.134;6.548;2023-05-16T09:48:20;14.50;55.80
78345;DHT22;67620;51.134;6.548;2023-05-16T09:50:46;14.60;56.20
78345;DHT22;67620;51.134;6.548;2023-05-16T09:53:15;14.50;56.40
78345;DHT22;67620;51.134;6.548;2023-05-16T09:55:40;14.40;55.20
78345;DHT22;67620;51.134;6.548;2023-05-16T09:58:06;14.40;53.60
78345;DHT22;67620;51.134;6.548;2023-05-16T10:00:32;14.40;54.30
78345;DHT22;67620;51.134;6.548;2023-05-16T10:02:59;14.40;53.60
78345;DHT22;67620;51.134;6.548;2023-05-16T10:05:29;14.50;53.80
78345;DHT22;67620;51.134;6.548;2023-05-16T10:07:56;14.60;50.80
78345;DHT22;67620;51.134;6.548;2023-05-16T10:10:22;14.80;51.40
78345;DHT22;67620;51.134;6.548;2023-05-16T10:12:50;14.90;49.70
78345;DHT22;67620;51.134;6.548;2023-05-16T10:15:16;15.00;49.50
78345;DHT22;67620;51.134;6.548;2023-05-16T10:17:44;15.00;48.40
78345;DHT22;67620;51.134;6.548;2023-05-16T10:20:13;14.90;48.70
78345;DHT22;67620;51.134;6.548;2023-05-16T10:22:42;14.90;48.60
78345;DHT22;67620;51.134;6.548;2023-05-16T10:25:32;14.90;49.20
78345;DHT22;67620;51.134;6.548;2023-05-16T10:27:58;15.00;49.20
78345;DHT22;67620;51.134;6.548;2023-05-16T10:30:24;14.90;49.90
78345;DHT22;67620;51.134;6.548;2023-05-16T10:32:50;14.80;50.50
78345;DHT22;67620;51.134;6.548;2023-05-16T10:35:16;14.80;51.20
78345;DHT22;67620;51.134;6.548;2023-05-16T10:37:42;14.80;51.50
78345;DHT22;67620;51.134;6.548;2023-05-16T10:40:08;14.90;52.50
78345;DHT22;67620;51.134;6.548;2023-05-16T10:42:34;14.90;52.10
78345;DHT22;67620;51.134;6.548;2023-05-16T10:45:15;15.00;51.90
78345;DHT22;67620;51.134;6.548;2023-05-16T10:47:53;15.10;53.20
78345;DHT22;67620;51.134;6.548;2023-05-16T10:50:42;15.20;53.20
78345;DHT22;67620;51.134;6.548;2023-05-16T10:53:34;15.40;52.30
78345;DHT22;67620;51.134;6.548;2023-05-16T10:58:38;15.60;51.80
78345;DHT22;67620;51.134;6.548;2023-05-16T11:01:22;15.60;52.10
78345;DHT22;67620;51.134;6.548;2023-05-16T11:04:04;15.60;50.70
78345;DHT22;67620;51.134;6.548;2023-05-16T11:11:46;15.80;49.60
78345;DHT22;67620;51.134;6.548;2023-05-16T11:14:23;15.80;49.70
78345;DHT22;67620;51.134;6.548;2023-05-16T11:19:44;15.80;49.00
78345;DHT22;67620;51.134;6.548;2023-05-16T11:22:31;15.80;50.60
78345;DHT22;67620;51.134;6.548;2023-05-16T11:24:59;15.90;48.40
78345;DHT22;67620;51.134;6.548;2023-05-16T11:27:31;16.00;49.60
78345;DHT22;67620;51.134;6.548;2023-05-16T11:32:30;15.80;49.80
78345;DHT22;67620;51.134;6.548;2023-05-16T11:34:58;15.60;50.80
78345;DHT22;67620;51.134;6.548;2023-05-16T11:37:23;15.40;51.50
78345;DHT22;67620;51.134;6.548;2023-05-16T11:39:49;15.20;51.80
78345;DHT22;67620;51.134;6.548;2023-05-16T11:42:15;15.20;52.40
78345;DHT22;67620;51.134;6.548;2023-05-16T11:44:42;15.30;52.70
78345;DHT22;67620;51.134;6.548;2023-05-16T11:47:08;15.20;52.50
78345;DHT22;67620;51.134;6.548;2023-05-16T11:49:33;15.20;58.70
78345;DHT22;67620;51.134;6.548;2023-05-16T11:52:00;15.10;57.30
78345;DHT22;67620;51.134;6.548;2023-05-16T11:54:25;15.00;57.40
78345;DHT22;67620;51.134;6.548;2023-05-16T11:56:51;15.10;58.10
78345;DHT22;67620;51.134;6.548;2023-05-16T11:59:18;15.20;57.40
78345;DHT22;67620;51.134;6.548;2023-05-16T12:01:43;15.10;56.10
78345;DHT22;67620;51.134;6.548;2023-05-16T12:04:13;15.20;56.70
78345;DHT22;67620;51.134;6.548;2023-05-16T12:06:39;15.30;56.40
78345;DHT22;67620;51.134;6.548;2023-05-16T12:09:05;15.50;54.80
78345;DHT22;67620;51.134;6.548;2023-05-16T12:11:39;15.60;54.10
78345;DHT22;67620;51.134;6.548;2023-05-16T12:14:06;15.70;51.70
78345;DHT22;67620;51.134;6.548;2023-05-16T12:16:32;15.70;51.20
78345;DHT22;67620;51.134;6.548;2023-05-16T12:18:59;15.70;51.60
78345;DHT22;67620;51.134;6.548;2023-05-16T12:21:26;15.70;51.30
78345;DHT22;67620;51.134;6.548;2023-05-16T12:23:55;15.70;50.70
78345;DHT22;67620;51.134;6.548;2023-05-16T12:26:29;15.60;50.50
78345;DHT22;67620;51.134;6.548;2023-05-16T12:28:57;15.50;50.80
78345;DHT22;67620;51.134;6.548;2023-05-16T12:31:25;15.40;51.70
78345;DHT22;67620;51.134;6.548;2023-05-16T12:33:54;15.40;52.30
78345;DHT22;67620;51.134;6.548;2023-05-16T12:36:20;15.30;53.10
78345;DHT22;67620;51.134;6.548;2023-05-16T12:38:46;15.20;53.30
78345;DHT22;67620;51.134;6.548;2023-05-16T12:41:17;15.20;53.40
78345;DHT22;67620;51.134;6.548;2023-05-16T12:43:43;15.30;53.30
78345;DHT22;67620;51.134;6.548;2023-05-16T12:46:09;15.30;54.70
78345;DHT22;67620;51.134;6.548;2023-05-16T12:48:35;15.40;53.10
78345;DHT22;67620;51.134;6.548;2023-05-16T12:51:16;15.50;52.40
78345;DHT22;67620;51.134;6.548;2023-05-16T12:53:43;15.60;52.20
78345;DHT22;67620;51.134;6.548;2023-05-16T12:56:10;15.60;51.10
78345;DHT22;67620;51.134;6.548;2023-05-16T12:58:36;15.60;50.70
78345;DHT22;67620;51.134;6.548;2023-05-16T13:01:02;15.70;45.80
78345;DHT22;67620;51.134;6.548;2023-05-16T13:03:28;15.70;48.10
78345;DHT22;67620;51.134;6.548;2023-05-16T13:05:54;15.80;47.20
78345;DHT22;67620;51.134;6.548;2023-05-16T13:08:20;15.70;44.20
78345;DHT22;67620;51.134;6.548;2023-05-16T13:10:46;15.80;44.90
78345;DHT22;67620;51.134;6.548;2023-05-16T13:13:11;15.80;44.70
78345;DHT22;67620;51.134;6.548;2023-05-16T13:15:38;15.90;46.80
78345;DHT22;67620;51.134;6.548;2023-05-16T13:18:03;15.90;47.00
78345;DHT22;67620;51.134;6.548;2023-05-16T13:20:29;16.10;47.40
78345;DHT22;67620;51.134;6.548;2023-05-16T13:22:55;16.10;47.30
78345;DHT22;67620;51.134;6.548;2023-05-16T13:25:20;16.10;46.90
78345;DHT22;67620;51.134;6.548;2023-05-16T13:27:45;16.10;46.40
78345;DHT22;67620;51.134;6.548;2023-05-16T13:30:13;16.10;45.40
78345;DHT22;67620;51.134;6.548;2023-05-16T13:32:39;16.00;46.80
78345;DHT22;67620;51.134;6.548;2023-05-16T13:35:05;16.10;45.80
78345;DHT22;67620;51.134;6.548;2023-05-16T13:37:31;16.10;43.60
78345;DHT22;67620;51.134;6.548;2023-05-16T13:39:57;16.10;43.30
78345;DHT22;67620;51.134;6.548;2023-05-16T13:42:22;16.10;43.50
78345;DHT22;67620;51.134;6.548;2023-05-16T13:44:48;16.00;43.20
78345;DHT22;67620;51.134;6.548;2023-05-16T13:47:14;16.00;43.40
78345;DHT22;67620;51.134;6.548;2023-05-16T13:49:39;16.00;43.80
78345;DHT22;67620;51.134;6.548;2023-05-16T13:52:05;16.00;44.70
78345;DHT22;67620;51.134;6.548;2023-05-16T13:54:31;16.00;44.60
78345;DHT22;67620;51.134;6.548;2023-05-16T13:56:56;16.00;44.30
78345;DHT22;67620;51.134;6.548;2023-05-16T13:59:22;16.00;43.10
78345;DHT22;67620;51.134;6.548;2023-05-16T14:01:47;16.10;43.80
78345;DHT22;67620;51.134;6.548;2023-05-16T14:04:13;16.00;44.40
78345;DHT22;67620;51.134;6.548;2023-05-16T14:06:38;16.00;44.70
78345;DHT22;67620;51.134;6.548;2023-05-16T14:09:04;16.00;43.80
78345;DHT22;67620;51.134;6.548;2023-05-16T14:11:30;16.00;44.30
78345;DHT22;67620;51.134;6.548;2023-05-16T14:13:56;16.00;44.40
78345;DHT22;67620;51.134;6.548;2023-05-16T14:16:21;15.90;44.20
78345;DHT22;67620;51.134;6.548;2023-05-16T14:18:47;15.80;43.90
78345;DHT22;67620;51.134;6.548;2023-05-16T14:21:12;15.80;44.40
78345;DHT22;67620;51.134;6.548;2023-05-16T14:23:38;15.70;45.40
78345;DHT22;67620;51.134;6.548;2023-05-16T14:26:04;15.80;45.10
78345;DHT22;67620;51.134;6.548;2023-05-16T14:28:30;15.80;45.80
78345;DHT22;67620;51.134;6.548;2023-05-16T14:30:57;15.80;45.70
78345;DHT22;67620;51.134;6.548;2023-05-16T14:33:23;15.80;45.80
78345;DHT22;67620;51.134;6.548;2023-05-16T14:35:48;15.80;45.70
78345;DHT22;67620;51.134;6.548;2023-05-16T14:38:15;15.80;46.10
78345;DHT22;67620;51.134;6.548;2023-05-16T14:40:40;15.90;47.30
78345;DHT22;67620;51.134;6.548;2023-05-16T14:43:06;15.90;47.30
78345;DHT22;67620;51.134;6.548;2023-05-16T14:45:32;15.90;46.60
78345;DHT22;67620;51.134;6.548;2023-05-16T14:47:57;15.90;47.30
78345;DHT22;67620;51.134;6.548;2023-05-16T14:50:23;15.90;47.10
78345;DHT22;67620;51.134;6.548;2023-05-16T14:52:48;15.90;46.60
78345;DHT22;67620;51.134;6.548;2023-05-16T14:55:14;15.90;47.80
78345;DHT22;67620;51.134;6.548;2023-05-16T14:57:40;15.90;47.40
78345;DHT22;67620;51.134;6.548;2023-05-16T15:00:06;15.90;47.70
78345;DHT22;67620;51.134;6.548;2023-05-16T15:02:32;15.80;46.90
78345;DHT22;67620;51.134;6.548;2023-05-16T15:04:57;15.80;46.00
78345;DHT22;67620;51.134;6.548;2023-05-16T15:07:24;15.80;46.70
78345;DHT22;67620;51.134;6.548;2023-05-16T15:09:49;15.80;46.60
78345;DHT22;67620;51.134;6.548;2023-05-16T15:12:15;15.80;47.40
78345;DHT22;67620;51.134;6.548;2023-05-16T15:14:40;15.80;47.60
78345;DHT22;67620;51.134;6.548;2023-05-16T15:17:06;15.80;46.70
78345;DHT22;67620;51.134;6.548;2023-05-16T15:19:31;15.80;47.30
78345;DHT22;67620;51.134;6.548;2023-05-16T15:21:57;15.80;46.80
78345;DHT22;67620;51.134;6.548;2023-05-16T15:24:23;15.80;45.20
78345;DHT22;67620;51.134;6.548;2023-05-16T15:26:49;15.80;45.70
78345;DHT22;67620;51.134;6.548;2023-05-16T15:29:15;15.80;45.60
78345;DHT22;67620;51.134;6.548;2023-05-16T15:31:41;15.80;46.20
78345;DHT22;67620;51.134;6.548;2023-05-16T15:34:07;15.80;46.40
78345;DHT22;67620;51.134;6.548;2023-05-16T15:36:33;15.90;46.30
78345;DHT22;67620;51.134;6.548;2023-05-16T15:38:59;15.90;46.90
78345;DHT22;67620;51.134;6.548;2023-05-16T15:41:24;15.90;46.40
78345;DHT22;67620;51.134;6.548;2023-05-16T15:43:50;15.80;47.00
78345;DHT22;67620;51.134;6.548;2023-05-16T15:46:16;15.90;46.90
78345;DHT22;67620;51.134;6.548;2023-05-16T15:48:41;15.80;46.40